sensor_id;sensor_type;location;lat;lon;timestamp;pressure;altitude;pressure_sealevel;temperature;humidity
30873;BME280;17579;42.690;2.586;2022-08-19T00:00:35;97237.84;;;22.03;45.78
30873;BME280;17579;42.690;2.586;2022-08-19T00:03:01;97231.63;;;22.03;45.86
30873;BME280;17579;42.690;2.586;2022-08-19T00:05:26;97220.84;;;22.03;45.92
30873;BME280;17579;42.690;2.586;2022-08-19T00:07:52;97217.31;;;22.02;45.89
30873;BME280;17579;42.690;2.586;2022-08-19T00:10:19;97220.84;;;22.03;46.00
30873;BME280;17579;42.690;2.586;2022-08-19T00:12:44;97206.19;;;21.98;45.64
30873;BME280;17579;42.690;2.586;2022-08-19T00:15:15;97204.53;;;21.97;45.59
30873;BME280;17579;42.690;2.586;2022-08-19T00:17:43;97199.13;;;21.97;45.70
30873;BME280;17579;42.690;2.586;2022-08-19T00:20:11;97196.88;;;21.94;45.79
30873;BME280;17579;42.690;2.586;2022-08-19T00:22:38;97196.06;;;21.94;45.79
30873;BME280;17579;42.690;2.586;2022-08-19T00:25:05;97189.03;;;21.93;45.83
30873;BME280;17579;42.690;2.586;2022-08-19T00:27:31;97200.03;;;21.91;45.72
30873;BME280;17579;42.690;2.586;2022-08-19T00:29:57;97202.53;;;21.86;45.62
30873;BME280;17579;42.690;2.586;2022-08-19T00:32:25;97201.72;;;21.86;45.94
30873;BME280;17579;42.690;2.586;2022-08-19T00:34:57;97211.22;;;21.88;45.66
30873;BME280;17579;42.690;2.586;2022-08-19T00:37:24;97203.97;;;21.89;45.78
30873;BME280;17579;42.690;2.586;2022-08-19T00:39:52;97226.31;;;21.89;45.44
30873;BME280;17579;42.690;2.586;2022-08-19T00:42:19;97227.16;;;21.90;45.43
30873;BME280;17579;42.690;2.586;2022-08-19T00:44:45;97231.72;;;21.89;45.60
30873;BME280;17579;42.690;2.586;2022-08-19T00:47:11;97244.34;;;21.89;45.80
30873;BME280;17579;42.690;2.586;2022-08-19T00:49:41;97243.09;;;21.91;45.29
30873;BME280;17579;42.690;2.586;2022-08-19T00:52:16;97241.84;;;21.94;45.41
30873;BME280;17579;42.690;2.586;2022-08-19T00:54:44;97249.50;;;21.97;45.51
30873;BME280;17579;42.690;2.586;2022-08-19T00:57:12;97254.03;;;21.96;45.77
30873;BME280;17579;42.690;2.586;2022-08-19T00:59:42;97260.25;;;21.97;45.30
30873;BME280;17579;42.690;2.586;2022-08-19T01:02:10;97265.44;;;21.98;45.44
30873;BME280;17579;42.690;2.586;2022-08-19T01:04:36;97271.63;;;21.99;45.27
30873;BME280;17579;42.690;2.586;2022-08-19T01:07:02;97270.38;;;22.02;45.65
30873;BME280;17579;42.690;2.586;2022-08-19T01:09:28;97266.88;;;22.01;45.35
30873;BME280;17579;42.690;2.586;2022-08-19T01:11:55;97268.13;;;21.98;45.36
30873;BME280;17579;42.690;2.586;2022-08-19T01:14:21;97267.09;;;22.00;45.45
30873;BME280;17579;42.690;2.586;2022-08-19T01:16:54;97275.38;;;21.98;45.32
30873;BME280;17579;42.690;2.586;2022-08-19T01:19:28;97275.16;;;22.00;45.18
30873;BME280;17579;42.690;2.586;2022-08-19T01:24:41;97273.88;;;22.02;45.05
30873;BME280;17579;42.690;2.586;2022-08-19T01:27:07;97272.25;;;22.01;44.87
30873;BME280;17579;42.690;2.586;2022-08-19T01:29:33;97270.38;;;22.02;45.15
30873;BME280;17579;42.690;2.586;2022-08-19T01:32:01;97273.06;;;22.02;44.97
30873;BME280;17579;42.690;2.586;2022-08-19T01:34:26;97267.91;;;22.00;44.54
30873;BME280;17579;42.690;2.586;2022-08-19T01:37:07;97268.38;;;21.90;44.82
30873;BME280;17579;42.690;2.586;2022-08-19T01:39:33;97271.47;;;21.94;44.96
30873;BME280;17579;42.690;2.586;2022-08-19T01:42:01;97261.31;;;21.89;44.73
30873;BME280;17579;42.690;2.586;2022-08-19T01:44:29;97263.63;;;21.86;44.65
30873;BME280;17579;42.690;2.586;2022-08-19T01:46:54;97257.22;;;21.87;44.65
30873;BME280;17579;42.690;2.586;2022-08-19T01:49:22;97262.81;;;21.85;44.57
30873;BME280;17579;42.690;2.586;2022-08-19T01:51:56;97253.53;;;21.81;44.36
30873;BME280;17579;42.690;2.586;2022-08-19T01:54:23;97250.22;;;21.79;44.24
30873;BME280;17579;42.690;2.586;2022-08-19T01:57:06;97244.47;;;21.69;44.58
30873;BME280;17579;42.690;2.586;2022-08-19T01:59:33;97242.41;;;21.71;44.35
30873;BME280;17579;42.690;2.586;2022-08-19T02:02:04;97240.34;;;21.66;44.15
30873;BME280;17579;42.690;2.586;2022-08-19T02:04:32;97236.84;;;21.66;44.18
30873;BME280;17579;42.690;2.586;2022-08-19T02:07:01;97235.03;;;21.59;44.07
30873;BME280;17579;42.690;2.586;2022-08-19T02:09:27;97232.56;;;21.58;44.30
30873;BME280;17579;42.690;2.586;2022-08-19T02:11:59;97242.31;;;21.52;44.27
30873;BME280;17579;42.690;2.586;2022-08-19T02:14:25;97242.47;;;21.57;44.46
30873;BME280;17579;42.690;2.586;2022-08-19T02:16:59;97250.75;;;21.49;44.51
30873;BME280;17579;42.690;2.586;2022-08-19T02:19:25;97242.50;;;21.51;44.78
30873;BME280;17579;42.690;2.586;2022-08-19T02:21:55;97244.41;;;21.43;44.90
30873;BME280;17579;42.690;2.586;2022-08-19T02:24:20;97242.13;;;21.40;45.30
30873;BME280;17579;42.690;2.586;2022-08-19T02:26:58;97241.31;;;21.33;45.34
30873;BME280;17579;42.690;2.586;2022-08-19T02:29:24;97226.63;;;21.36;45.19
30873;BME280;17579;42.690;2.586;2022-08-19T02:32:03;97226.47;;;21.31;44.97
30873;BME280;17579;42.690;2.586;2022-08-19T02:34:29;97229.97;;;21.31;45.47
30873;BME280;17579;42.690;2.586;2022-08-19T02:36:58;97238.47;;;21.28;45.68
30873;BME280;17579;42.690;2.586;2022-08-19T02:39:23;97243.00;;;21.27;45.72
30873;BME280;17579;42.690;2.586;2022-08-19T02:42:00;97248.44;;;21.21;45.45
30873;BME280;17579;42.690;2.586;2022-08-19T02:44:27;97239.94;;;21.24;45.88
30873;BME280;17579;42.690;2.586;2022-08-19T02:46:57;97245.09;;;21.19;46.02
30873;BME280;17579;42.690;2.586;2022-08-19T02:49:23;97256.50;;;21.21;45.78
30873;BME280;17579;42.690;2.586;2022-08-19T02:52:00;97242.25;;;21.14;45.90
30873;BME280;17579;42.690;2.586;2022-08-19T02:54:25;97252.16;;;21.20;46.05
30873;BME280;17579;42.690;2.586;2022-08-19T02:56:55;97250.50;;;21.19;46.25
30873;BME280;17579;42.690;2.586;2022-08-19T02:59:20;97254.03;;;21.19;45.97
30873;BME280;17579;42.690;2.586;2022-08-19T03:01:59;97244.09;;;21.13;45.98
30873;BME280;17579;42.690;2.586;2022-08-19T03:04:25;97241.16;;;21.21;45.91
30873;BME280;17579;42.690;2.586;2022-08-19T03:06:58;97244.50;;;21.17;45.72
30873;BME280;17579;42.690;2.586;2022-08-19T03:09:24;97248.22;;;21.22;46.19
30873;BME280;17579;42.690;2.586;2022-08-19T03:11:56;97242.00;;;21.22;45.79
30873;BME280;17579;42.690;2.586;2022-08-19T03:14:22;97251.06;;;21.27;46.00
30873;BME280;17579;42.690;2.586;2022-08-19T03:16:55;97248.22;;;21.22;45.73
30873;BME280;17579;42.690;2.586;2022-08-19T03:19:21;97246.13;;;21.24;45.82
30873;BME280;17579;42.690;2.586;2022-08-19T03:21:57;97243.25;;;21.19;45.93
30873;BME280;17579;42.690;2.586;2022-08-19T03:24:24;97249.88;;;21.23;45.64
30873;BME280;17579;42.690;2.586;2022-08-19T03:27:01;97249.66;;;21.18;46.07
30873;BME280;17579;42.690;2.586;2022-08-19T03:29:31;97258.13;;;21.22;45.85
30873;BME280;17579;42.690;2.586;2022-08-19T03:32:06;97249.66;;;21.18;45.56
30873;BME280;17579;42.690;2.586;2022-08-19T03:34:34;97258.13;;;21.22;45.42
30873;BME280;17579;42.690;2.586;2022-08-19T03:37:07;97268.06;;;21.21;45.41
30873;BME280;17579;42.690;2.586;2022-08-19T03:39:36;97266.63;;;21.25;45.53
30873;BME280;17579;42.690;2.586;2022-08-19T03:42:02;97269.69;;;21.29;45.50
30873;BME280;17579;42.690;2.586;2022-08-19T03:44:28;97268.88;;;21.28;45.82
30873;BME280;17579;42.690;2.586;2022-08-19T03:47:08;97278.00;;;21.21;45.76
30873;BME280;17579;42.690;2.586;2022-08-19T03:49:33;97281.94;;;21.25;45.95
30873;BME280;17579;42.690;2.586;2022-08-19T03:52:00;97283.56;;;21.26;45.76
30873;BME280;17579;42.690;2.586;2022-08-19T03:54:27;97286.25;;;21.26;45.76
30873;BME280;17579;42.690;2.586;2022-08-19T03:57:03;97286.91;;;21.21;45.50
30873;BME280;17579;42.690;2.586;2022-08-19T03:59:32;97293.09;;;21.28;45.66
30873;BME280;17579;42.690;2.586;2022-08-19T04:02:01;97298.88;;;21.25;45.61
30873;BME280;17579;42.690;2.586;2022-08-19T04:04:28;97304.47;;;21.24;45.58
30873;BME280;17579;42.690;2.586;2022-08-19T04:06:54;97309.88;;;21.24;45.90
30873;BME280;17579;42.690;2.586;2022-08-19T04:09:20;97315.03;;;21.25;45.85
30873;BME280;17579;42.690;2.586;2022-08-19T04:11:52;97311.31;;;21.20;45.64
30873;BME280;17579;42.690;2.586;2022-08-19T04:14:21;97312.78;;;21.16;45.24
30873;BME280;17579;42.690;2.586;2022-08-19T04:16:56;97310.13;;;21.09;46.10
30873;BME280;17579;42.690;2.586;2022-08-19T04:19:22;97311.97;;;21.15;46.68
30873;BME280;17579;42.690;2.586;2022-08-19T04:21:57;97312.19;;;21.07;46.43
30873;BME280;17579;42.690;2.586;2022-08-19T04:24:24;97309.69;;;21.12;46.72
30873;BME280;17579;42.690;2.586;2022-08-19T04:27:06;97313.22;;;21.06;46.85
30873;BME280;17579;42.690;2.586;2022-08-19T04:29:32;97331.44;;;21.10;46.44
30873;BME280;17579;42.690;2.586;2022-08-19T04:31:59;97333.47;;;21.08;46.62
30873;BME280;17579;42.690;2.586;2022-08-19T04:34:27;97331.00;;;21.07;46.68
30873;BME280;17579;42.690;2.586;2022-08-19T04:37:01;97341.97;;;21.05;46.80
30873;BME280;17579;42.690;2.586;2022-08-19T04:39:29;97339.50;;;21.10;46.76
30873;BME280;17579;42.690;2.586;2022-08-19T04:42:07;97347.97;;;21.14;46.64
30873;BME280;17579;42.690;2.586;2022-08-19T04:44:45;97352.94;;;21.10;47.04
30873;BME280;17579;42.690;2.586;2022-08-19T04:47:10;97353.16;;;21.09;47.04
30873;BME280;17579;42.690;2.586;2022-08-19T04:49:36;97348.81;;;21.08;46.96
30873;BME280;17579;42.690;2.586;2022-08-19T04:52:03;97354.59;;;21.05;47.55
30873;BME280;17579;42.690;2.586;2022-08-19T04:54:28;97359.97;;;21.05;47.33
30873;BME280;17579;42.690;2.586;2022-08-19T04:57:12;97368.44;;;21.02;47.34
30873;BME280;17579;42.690;2.586;2022-08-19T04:59:39;97363.50;;;21.05;47.67
30873;BME280;17579;42.690;2.586;2022-08-19T05:02:08;97366.19;;;20.99;47.67
30873;BME280;17579;42.690;2.586;2022-08-19T05:04:35;97365.78;;;20.95;47.83
30873;BME280;17579;42.690;2.586;2022-08-19T05:07:05;97375.09;;;20.92;47.89
30873;BME280;17579;42.690;2.586;2022-08-19T05:09:31;97371.78;;;20.90;48.30
30873;BME280;17579;42.690;2.586;2022-08-19T05:12:17;97382.31;;;20.85;47.81
30873;BME280;17579;42.690;2.586;2022-08-19T05:14:44;97388.94;;;20.89;48.19
30873;BME280;17579;42.690;2.586;2022-08-19T05:17:15;97396.19;;;20.82;48.18
30873;BME280;17579;42.690;2.586;2022-08-19T05:19:41;97387.91;;;20.84;48.60
30873;BME280;17579;42.690;2.586;2022-08-19T05:22:25;97383.59;;;20.76;48.35
30873;BME280;17579;42.690;2.586;2022-08-19T05:24:57;97381.50;;;20.78;49.10
30873;BME280;17579;42.690;2.586;2022-08-19T05:27:24;97379.44;;;20.73;49.19
30873;BME280;17579;42.690;2.586;2022-08-19T05:29:50;97382.34;;;20.72;49.55
30873;BME280;17579;42.690;2.586;2022-08-19T05:32:24;97383.13;;;20.66;49.37
30873;BME280;17579;42.690;2.586;2022-08-19T05:34:50;97382.34;;;20.72;49.83
30873;BME280;17579;42.690;2.586;2022-08-19T05:37:26;97378.78;;;20.65;49.84
30873;BME280;17579;42.690;2.586;2022-08-19T05:39:52;97385.19;;;20.64;50.17
30873;BME280;17579;42.690;2.586;2022-08-19T05:42:24;97371.75;;;20.57;50.56
30873;BME280;17579;42.690;2.586;2022-08-19T05:44:50;97379.59;;;20.58;50.67
30873;BME280;17579;42.690;2.586;2022-08-19T05:47:23;97380.66;;;20.57;50.68
30873;BME280;17579;42.690;2.586;2022-08-19T05:49:49;97372.38;;;20.66;51.04
30873;BME280;17579;42.690;2.586;2022-08-19T05:52:24;97374.25;;;20.65;51.03
30873;BME280;17579;42.690;2.586;2022-08-19T05:54:50;97372.41;;;20.72;50.99
30873;BME280;17579;42.690;2.586;2022-08-19T05:57:29;97371.78;;;20.84;50.61
30873;BME280;17579;42.690;2.586;2022-08-19T05:59:55;97395.34;;;21.15;50.58
30873;BME280;17579;42.690;2.586;2022-08-19T06:02:37;97391.38;;;21.38;49.79
30873;BME280;17579;42.690;2.586;2022-08-19T06:05:04;97383.00;;;21.66;49.40
30873;BME280;17579;42.690;2.586;2022-08-19T06:07:37;97366.56;;;21.88;48.77
30873;BME280;17579;42.690;2.586;2022-08-19T06:10:05;97377.00;;;22.09;48.85
30873;BME280;17579;42.690;2.586;2022-08-19T06:12:48;97382.06;;;22.31;48.19
30873;BME280;17579;42.690;2.586;2022-08-19T06:15:17;97380.25;;;22.57;47.27
30873;BME280;17579;42.690;2.586;2022-08-19T06:17:48;97377.84;;;22.74;46.62
30873;BME280;17579;42.690;2.586;2022-08-19T06:20:16;97374.63;;;22.90;46.68
30873;BME280;17579;42.690;2.586;2022-08-19T06:22:46;97386.94;;;23.05;45.80
30873;BME280;17579;42.690;2.586;2022-08-19T06:25:15;97377.53;;;23.07;45.95
30873;BME280;17579;42.690;2.586;2022-08-19T06:27:49;97386.88;;;22.61;46.16
30873;BME280;17579;42.690;2.586;2022-08-19T06:30:19;97388.75;;;22.22;46.49
30873;BME280;17579;42.690;2.586;2022-08-19T06:32:49;97392.66;;;21.94;46.86
30873;BME280;17579;42.690;2.586;2022-08-19T06:35:19;97385.25;;;21.83;47.50
30873;BME280;17579;42.690;2.586;2022-08-19T06:37:50;97406.34;;;21.86;47.50
30873;BME280;17579;42.690;2.586;2022-08-19T06:40:25;97399.22;;;22.05;47.74
30873;BME280;17579;42.690;2.586;2022-08-19T06:42:58;97407.94;;;22.71;46.83
30873;BME280;17579;42.690;2.586;2022-08-19T06:45:41;97409.22;;;23.18;46.34
30873;BME280;17579;42.690;2.586;2022-08-19T06:48:19;97407.94;;;23.83;44.75
30873;BME280;17579;42.690;2.586;2022-08-19T06:51:10;97404.91;;;24.10;44.26
30873;BME280;17579;42.690;2.586;2022-08-19T06:53:50;97415.31;;;24.55;43.42
30873;BME280;17579;42.690;2.586;2022-08-19T06:56:42;97411.25;;;24.77;43.48
30873;BME280;17579;42.690;2.586;2022-08-19T06:59:23;97409.63;;;25.11;41.90
30873;BME280;17579;42.690;2.586;2022-08-19T07:02:19;97409.53;;;25.18;41.97
30873;BME280;17579;42.690;2.586;2022-08-19T07:04:57;97408.13;;;25.51;40.58
30873;BME280;17579;42.690;2.586;2022-08-19T07:07:35;97398.22;;;25.56;40.67
30873;BME280;17579;42.690;2.586;2022-08-19T07:10:03;97409.13;;;25.85;40.03
30873;BME280;17579;42.690;2.586;2022-08-19T07:12:58;97407.66;;;25.94;40.24
30873;BME280;17579;42.690;2.586;2022-08-19T07:15:47;97406.97;;;26.11;39.24
30873;BME280;17579;42.690;2.586;2022-08-19T07:18:26;97395.13;;;26.17;38.51
30873;BME280;17579;42.690;2.586;2022-08-19T07:21:19;97397.34;;;26.20;39.09
30873;BME280;17579;42.690;2.586;2022-08-19T07:23:59;97395.53;;;26.55;38.11
30873;BME280;17579;42.690;2.586;2022-08-19T07:27:02;97389.97;;;26.61;38.24
30873;BME280;17579;42.690;2.586;2022-08-19T07:29:45;97390.53;;;26.92;36.52
30873;BME280;17579;42.690;2.586;2022-08-19T07:32:40;97396.50;;;26.94;37.07
30873;BME280;17579;42.690;2.586;2022-08-19T07:35:26;97395.84;;;27.04;36.18
30873;BME280;17579;42.690;2.586;2022-08-19T07:37:58;97397.16;;;27.19;35.70
30873;BME280;17579;42.690;2.586;2022-08-19T07:40:45;97410.31;;;27.27;36.37
30873;BME280;17579;42.690;2.586;2022-08-19T07:43:25;97407.81;;;27.42;35.19
30873;BME280;17579;42.690;2.586;2022-08-19T07:46:17;97405.38;;;27.41;35.61
30873;BME280;17579;42.690;2.586;2022-08-19T07:48:57;97405.72;;;27.66;34.71
30873;BME280;17579;42.690;2.586;2022-08-19T07:51:52;97401.00;;;27.79;35.53
30873;BME280;17579;42.690;2.586;2022-08-19T07:54:32;97401.69;;;28.13;34.26
30873;BME280;17579;42.690;2.586;2022-08-19T07:57:26;97408.19;;;28.12;34.49
30873;BME280;17579;42.690;2.586;2022-08-19T08:00:06;97403.91;;;28.44;33.83
30873;BME280;17579;42.690;2.586;2022-08-19T08:02:47;97398.28;;;28.50;33.90
30873;BME280;17579;42.690;2.586;2022-08-19T08:05:14;97408.03;;;28.74;32.94
30873;BME280;17579;42.690;2.586;2022-08-19T08:07:52;97405.75;;;28.93;32.93
30873;BME280;17579;42.690;2.586;2022-08-19T08:10:50;97402.28;;;29.02;33.19
30873;BME280;17579;42.690;2.586;2022-08-19T08:13:28;97400.75;;;29.22;32.18
30873;BME280;17579;42.690;2.586;2022-08-19T08:16:18;97394.50;;;29.21;32.58
30873;BME280;17579;42.690;2.586;2022-08-19T08:18:57;97396.31;;;29.43;31.84
30873;BME280;17579;42.690;2.586;2022-08-19T08:21:48;97395.44;;;29.37;32.46
30873;BME280;17579;42.690;2.586;2022-08-19T08:24:31;97390.88;;;29.48;31.36
30873;BME280;17579;42.690;2.586;2022-08-19T08:27:31;97390.66;;;29.17;32.33
30873;BME280;17579;42.690;2.586;2022-08-19T08:30:20;97396.38;;;29.16;31.43
30873;BME280;17579;42.690;2.586;2022-08-19T08:32:59;97401.53;;;29.12;32.00
30873;BME280;17579;42.690;2.586;2022-08-19T08:35:41;97401.53;;;29.12;31.67
30873;BME280;17579;42.690;2.586;2022-08-19T08:38:18;97398.63;;;28.92;31.40
30873;BME280;17579;42.690;2.586;2022-08-19T08:41:26;97396.03;;;28.47;32.66
30873;BME280;17579;42.690;2.586;2022-08-19T08:44:02;97397.59;;;28.38;32.49
30873;BME280;17579;42.690;2.586;2022-08-19T08:46:58;97391.00;;;28.07;33.38
30873;BME280;17579;42.690;2.586;2022-08-19T08:49:45;97391.06;;;28.12;33.33
30873;BME280;17579;42.690;2.586;2022-08-19T08:52:43;97399.84;;;27.97;33.49
30873;BME280;17579;42.690;2.586;2022-08-19T08:55:22;97395.16;;;27.92;33.58
30873;BME280;17579;42.690;2.586;2022-08-19T08:58:03;97385.06;;;27.88;33.14
30873;BME280;17579;42.690;2.586;2022-08-19T09:00:57;97394.03;;;27.66;33.90
30873;BME280;17579;42.690;2.586;2022-08-19T09:03:37;97388.91;;;27.70;34.08
30873;BME280;17579;42.690;2.586;2022-08-19T09:09:30;97383.06;;;27.39;34.81
30873;BME280;17579;42.690;2.586;2022-08-19T09:12:38;97398.94;;;27.30;35.23
30873;BME280;17579;42.690;2.586;2022-08-19T09:15:33;97381.00;;;27.29;35.29
30873;BME280;17579;42.690;2.586;2022-08-19T09:18:51;97393.03;;;27.16;35.17
30873;BME280;17579;42.690;2.586;2022-08-19T09:21:40;97379.38;;;27.11;35.41
30873;BME280;17579;42.690;2.586;2022-08-19T09:24:18;97380.88;;;27.19;35.72
30873;BME280;17579;42.690;2.586;2022-08-19T09:27:04;97370.75;;;27.14;35.84
30873;BME280;17579;42.690;2.586;2022-08-19T09:29:43;97369.66;;;27.15;36.07
30873;BME280;17579;42.690;2.586;2022-08-19T09:32:37;97367.69;;;27.10;36.19
30873;BME280;17579;42.690;2.586;2022-08-19T09:35:29;97354.34;;;27.26;36.11
30873;BME280;17579;42.690;2.586;2022-08-19T09:38:37;97366.22;;;27.20;35.98
30873;BME280;17579;42.690;2.586;2022-08-19T09:41:40;97354.47;;;27.14;35.69
30873;BME280;17579;42.690;2.586;2022-08-19T09:44:23;97358.25;;;27.13;35.77
30873;BME280;17579;42.690;2.586;2022-08-19T09:47:21;97367.94;;;27.09;36.28
30873;BME280;17579;42.690;2.586;2022-08-19T09:50:05;97377.13;;;27.25;36.04
30873;BME280;17579;42.690;2.586;2022-08-19T09:53:08;97371.06;;;27.18;36.07
30873;BME280;17579;42.690;2.586;2022-08-19T09:56:28;97365.47;;;27.24;35.67
30873;BME280;17579;42.690;2.586;2022-08-19T09:59:10;97352.88;;;27.35;35.77
30873;BME280;17579;42.690;2.586;2022-08-19T10:02:12;97350.81;;;27.25;35.51
30873;BME280;17579;42.690;2.586;2022-08-19T10:04:56;97352.06;;;27.35;35.30
30873;BME280;17579;42.690;2.586;2022-08-19T10:08:17;97356.16;;;27.20;35.56
30873;BME280;17579;42.690;2.586;2022-08-19T10:11:39;97365.56;;;27.12;35.98
30873;BME280;17579;42.690;2.586;2022-08-19T10:14:24;97374.41;;;27.25;35.93
30873;BME280;17579;42.690;2.586;2022-08-19T10:17:30;97350.91;;;27.13;36.30
30873;BME280;17579;42.690;2.586;2022-08-19T10:20:16;97361.69;;;27.25;35.88
30873;BME280;17579;42.690;2.586;2022-08-19T10:22:41;97356.81;;;27.27;36.02
30873;BME280;17579;42.690;2.586;2022-08-19T10:25:08;97356.44;;;27.36;36.08
30873;BME280;17579;42.690;2.586;2022-08-19T10:28:20;97353.25;;;27.44;36.28
30873;BME280;17579;42.690;2.586;2022-08-19T10:31:10;97360.53;;;27.60;35.79
30873;BME280;17579;42.690;2.586;2022-08-19T10:33:37;97368.88;;;27.76;35.56
30873;BME280;17579;42.690;2.586;2022-08-19T10:36:39;97365.69;;;27.84;35.64
30873;BME280;17579;42.690;2.586;2022-08-19T10:39:23;97368.69;;;28.05;35.09
30873;BME280;17579;42.690;2.586;2022-08-19T10:42:31;97380.94;;;28.07;35.10
30873;BME280;17579;42.690;2.586;2022-08-19T10:45:19;97379.97;;;28.18;34.73
30873;BME280;17579;42.690;2.586;2022-08-19T10:48:30;97387.94;;;28.25;34.51
30873;BME280;17579;42.690;2.586;2022-08-19T10:51:55;97369.72;;;28.26;34.56
30873;BME280;17579;42.690;2.586;2022-08-19T10:54:32;97379.28;;;28.28;33.97
30873;BME280;17579;42.690;2.586;2022-08-19T10:57:52;97375.16;;;28.26;34.54
30873;BME280;17579;42.690;2.586;2022-08-19T11:00:37;97374.78;;;28.44;33.93
30873;BME280;17579;42.690;2.586;2022-08-19T11:03:03;97369.69;;;28.48;32.70
30873;BME280;17579;42.690;2.586;2022-08-19T11:06:04;97372.31;;;28.38;33.59
30873;BME280;17579;42.690;2.586;2022-08-19T11:09:22;97365.00;;;28.43;33.73
30873;BME280;17579;42.690;2.586;2022-08-19T11:12:36;97359.31;;;28.45;33.05
30873;BME280;17579;42.690;2.586;2022-08-19T11:15:19;97371.66;;;28.58;32.72
30873;BME280;17579;42.690;2.586;2022-08-19T11:17:45;97375.31;;;28.68;32.80
30873;BME280;17579;42.690;2.586;2022-08-19T11:20:15;97369.41;;;28.77;33.00
30873;BME280;17579;42.690;2.586;2022-08-19T11:23:18;97360.19;;;28.83;32.68
30873;BME280;17579;42.690;2.586;2022-08-19T11:26:41;97368.03;;;28.74;32.15
30873;BME280;17579;42.690;2.586;2022-08-19T11:29:25;97354.47;;;28.84;31.30
30873;BME280;17579;42.690;2.586;2022-08-19T11:32:27;97353.09;;;28.82;32.06
30873;BME280;17579;42.690;2.586;2022-08-19T11:35:14;97345.28;;;28.91;31.39
30873;BME280;17579;42.690;2.586;2022-08-19T11:38:01;97328.66;;;28.87;31.41
30873;BME280;17579;42.690;2.586;2022-08-19T11:40:53;97329.44;;;28.82;31.04
30873;BME280;17579;42.690;2.586;2022-08-19T11:44:46;97326.97;;;28.81;30.68
30873;BME280;17579;42.690;2.586;2022-08-19T11:47:05;97327.31;;;28.95;29.75
30873;BME280;17579;42.690;2.586;2022-08-19T11:49:32;97320.47;;;28.87;29.70
30873;BME280;17579;42.690;2.586;2022-08-19T11:52:40;97321.81;;;28.84;30.63
30873;BME280;17579;42.690;2.586;2022-08-19T11:55:37;97319.41;;;28.88;30.54
30873;BME280;17579;42.690;2.586;2022-08-19T11:58:58;97323.47;;;28.85;30.48
30873;BME280;17579;42.690;2.586;2022-08-19T12:02:19;97331.91;;;28.84;29.76
30873;BME280;17579;42.690;2.586;2022-08-19T12:05:00;97316.16;;;28.91;29.84
30873;BME280;17579;42.690;2.586;2022-08-19T12:08:01;97323.25;;;28.92;29.49
30873;BME280;17579;42.690;2.586;2022-08-19T12:11:14;97321.13;;;28.99;29.82
30873;BME280;17579;42.690;2.586;2022-08-19T12:13:56;97329.06;;;29.11;28.42
30873;BME280;17579;42.690;2.586;2022-08-19T12:16:40;97323.59;;;29.06;29.00
30873;BME280;17579;42.690;2.586;2022-08-19T12:19:21;97317.91;;;29.13;28.68
30873;BME280;17579;42.690;2.586;2022-08-19T12:22:02;97297.47;;;29.10;28.63
30873;BME280;17579;42.690;2.586;2022-08-19T12:24:47;97300.50;;;29.14;28.29
30873;BME280;17579;42.690;2.586;2022-08-19T12:27:53;97316.06;;;29.18;29.03
30873;BME280;17579;42.690;2.586;2022-08-19T12:31:09;97314.78;;;29.31;28.71
30873;BME280;17579;42.690;2.586;2022-08-19T12:33:55;97319.66;;;29.29;28.30
30873;BME280;17579;42.690;2.586;2022-08-19T12:36:56;97304.63;;;29.21;28.63
30873;BME280;17579;42.690;2.586;2022-08-19T12:39:41;97309.91;;;29.38;28.71
30873;BME280;17579;42.690;2.586;2022-08-19T12:42:44;97321.16;;;29.52;28.10
30873;BME280;17579;42.690;2.586;2022-08-19T12:45:44;97314.63;;;29.59;28.19
30873;BME280;17579;42.690;2.586;2022-08-19T12:48:28;97310.56;;;29.61;27.96
30873;BME280;17579;42.690;2.586;2022-08-19T12:51:29;97304.53;;;29.54;28.02
30873;BME280;17579;42.690;2.586;2022-08-19T12:54:14;97304.84;;;29.63;27.35
30873;BME280;17579;42.690;2.586;2022-08-19T12:57:16;97312.47;;;29.66;27.80
30873;BME280;17579;42.690;2.586;2022-08-19T13:00:11;97297.88;;;29.93;27.82
30873;BME280;17579;42.690;2.586;2022-08-19T13:03:15;97304.44;;;30.17;27.84
30873;BME280;17579;42.690;2.586;2022-08-19T13:06:28;97300.16;;;30.47;26.99
30873;BME280;17579;42.690;2.586;2022-08-19T13:09:09;97288.38;;;30.72;27.12
30873;BME280;17579;42.690;2.586;2022-08-19T13:11:48;97281.50;;;31.06;26.76
30873;BME280;17579;42.690;2.586;2022-08-19T13:14:29;97293.72;;;31.34;25.46
30873;BME280;17579;42.690;2.586;2022-08-19T13:17:27;97278.63;;;31.57;25.51
30873;BME280;17579;42.690;2.586;2022-08-19T13:20:09;97272.72;;;31.85;24.87
30873;BME280;17579;42.690;2.586;2022-08-19T13:23:14;97274.00;;;32.03;24.95
30873;BME280;17579;42.690;2.586;2022-08-19T13:26:12;97271.13;;;32.23;24.60
30873;BME280;17579;42.690;2.586;2022-08-19T13:28:52;97264.75;;;32.62;23.25
30873;BME280;17579;42.690;2.586;2022-08-19T13:31:57;97248.41;;;32.57;23.46
30873;BME280;17579;42.690;2.586;2022-08-19T13:34:36;97266.13;;;32.65;22.58
30873;BME280;17579;42.690;2.586;2022-08-19T13:37:36;97266.28;;;32.79;23.11
30873;BME280;17579;42.690;2.586;2022-08-19T13:40:28;97258.25;;;32.88;22.49
30873;BME280;17579;42.690;2.586;2022-08-19T13:43:25;97234.19;;;32.85;23.25
30873;BME280;17579;42.690;2.586;2022-08-19T13:46:26;97256.44;;;32.78;23.02
30873;BME280;17579;42.690;2.586;2022-08-19T13:49:11;97252.78;;;32.88;22.89
30873;BME280;17579;42.690;2.586;2022-08-19T13:52:13;97261.03;;;32.83;23.05
30873;BME280;17579;42.690;2.586;2022-08-19T13:54:58;97256.81;;;32.95;23.28
30873;BME280;17579;42.690;2.586;2022-08-19T13:57:58;97264.25;;;32.90;22.95
30873;BME280;17579;42.690;2.586;2022-08-19T14:01:18;97265.56;;;32.68;22.78
30873;BME280;17579;42.690;2.586;2022-08-19T14:04:00;97281.81;;;32.89;22.29
30873;BME280;17579;42.690;2.586;2022-08-19T14:07:01;97253.13;;;32.81;22.19
30873;BME280;17579;42.690;2.586;2022-08-19T14:09:47;97260.81;;;32.79;22.38
30873;BME280;17579;42.690;2.586;2022-08-19T14:12:45;97248.47;;;32.81;22.51
30873;BME280;17579;42.690;2.586;2022-08-19T14:15:15;97257.38;;;32.63;21.98